sensor_id;sensor_type;location;lat;lon;timestamp;P1;durP1;ratioP1;P2;durP2;ratioP2
20865;SDS011;10593;48.398;10.698;2022-09-01T00:01:53;6.53;;;6.03;;
20865;SDS011;10593;48.398;10.698;2022-09-01T00:04:24;5.97;;;5.47;;
20865;SDS011;10593;48.398;10.698;2022-09-01T00:06:51;6.97;;;6.37;;
20865;SDS011;10593;48.398;10.698;2022-09-01T00:09:19;7.03;;;6.53;;
20865;SDS011;10593;48.398;10.698;2022-09-01T00:11:49;6.10;;;5.70;;
20865;SDS011;10593;48.398;10.698;2022-09-01T00:14:18;6.20;;;5.70;;
20865;SDS011;10593;48.398;10.698;2022-09-01T00:16:48;6.60;;;6.00;;
20865;SDS011;10593;48.398;10.698;2022-09-01T00:19:14;6.90;;;6.20;;
20865;SDS011;10593;48.398;10.698;2022-09-01T00:21:41;6.77;;;6.17;;
20865;SDS011;10593;48.398;10.698;2022-09-01T00:24:09;6.80;;;6.20;;
20865;SDS011;10593;48.398;10.698;2022-09-01T00:26:37;7.17;;;6.57;;
20865;SDS011;10593;48.398;10.698;2022-09-01T00:29:04;7.27;;;6.67;;
20865;SDS011;10593;48.398;10.698;2022-09-01T00:31:30;7.10;;;6.50;;
20865;SDS011;10593;48.398;10.698;2022-09-01T00:33:57;7.40;;;6.70;;
20865;SDS011;10593;48.398;10.698;2022-09-01T00:36:23;6.57;;;6.07;;
20865;SDS011;10593;48.398;10.698;2022-09-01T00:38:49;7.17;;;6.57;;
20865;SDS011;10593;48.398;10.698;2022-09-01T00:41:16;7.27;;;6.67;;
20865;SDS011;10593;48.398;10.698;2022-09-01T00:43:48;7.10;;;6.50;;
20865;SDS011;10593;48.398;10.698;2022-09-01T00:46:21;6.70;;;6.20;;
20865;SDS011;10593;48.398;10.698;2022-09-01T00:48:53;7.27;;;6.67;;
20865;SDS011;10593;48.398;10.698;2022-09-01T00:51:24;7.37;;;6.43;;
20865;SDS011;10593;48.398;10.698;2022-09-01T00:53:52;7.03;;;6.47;;
20865;SDS011;10593;48.398;10.698;2022-09-01T00:56:19;7.10;;;6.50;;
20865;SDS011;10593;48.398;10.698;2022-09-01T00:58:47;6.40;;;5.90;;
20865;SDS011;10593;48.398;10.698;2022-09-01T01:01:15;7.20;;;6.60;;
20865;SDS011;10593;48.398;10.698;2022-09-01T01:03:42;7.07;;;6.47;;
20865;SDS011;10593;48.398;10.698;2022-09-01T01:06:11;7.20;;;6.60;;
20865;SDS011;10593;48.398;10.698;2022-09-01T01:08:41;6.93;;;6.43;;
20865;SDS011;10593;48.398;10.698;2022-09-01T01:11:28;6.87;;;6.27;;
20865;SDS011;10593;48.398;10.698;2022-09-01T01:14:07;7.13;;;6.53;;
20865;SDS011;10593;48.398;10.698;2022-09-01T01:16:39;7.10;;;6.50;;
20865;SDS011;10593;48.398;10.698;2022-09-01T01:19:18;7.30;;;6.63;;
20865;SDS011;10593;48.398;10.698;2022-09-01T01:22:22;7.00;;;6.40;;
20865;SDS011;10593;48.398;10.698;2022-09-01T01:25:14;6.80;;;6.27;;
20865;SDS011;10593;48.398;10.698;2022-09-01T01:27:43;7.10;;;6.60;;
20865;SDS011;10593;48.398;10.698;2022-09-01T01:30:10;8.00;;;7.30;;
20865;SDS011;10593;48.398;10.698;2022-09-01T01:32:37;6.77;;;6.23;;
20865;SDS011;10593;48.398;10.698;2022-09-01T01:35:07;7.30;;;6.60;;
20865;SDS011;10593;48.398;10.698;2022-09-01T01:37:39;7.23;;;6.53;;
20865;SDS011;10593;48.398;10.698;2022-09-01T01:40:09;7.07;;;6.47;;
20865;SDS011;10593;48.398;10.698;2022-09-01T01:42:40;6.87;;;6.33;;
20865;SDS011;10593;48.398;10.698;2022-09-01T01:45:09;7.13;;;6.53;;
20865;SDS011;10593;48.398;10.698;2022-09-01T01:47:41;8.20;;;7.50;;
20865;SDS011;10593;48.398;10.698;2022-09-01T01:50:11;7.07;;;6.47;;
20865;SDS011;10593;48.398;10.698;2022-09-01T01:52:38;6.90;;;6.40;;
20865;SDS011;10593;48.398;10.698;2022-09-01T01:55:05;7.57;;;6.97;;
20865;SDS011;10593;48.398;10.698;2022-09-01T01:57:36;7.47;;;6.87;;
20865;SDS011;10593;48.398;10.698;2022-09-01T02:00:13;7.30;;;6.80;;
20865;SDS011;10593;48.398;10.698;2022-09-01T02:02:43;6.53;;;6.03;;
20865;SDS011;10593;48.398;10.698;2022-09-01T02:05:16;7.40;;;6.77;;
20865;SDS011;10593;48.398;10.698;2022-09-01T02:07:49;7.10;;;6.50;;
20865;SDS011;10593;48.398;10.698;2022-09-01T02:10:24;7.53;;;6.87;;
20865;SDS011;10593;48.398;10.698;2022-09-01T02:12:55;7.43;;;6.73;;
20865;SDS011;10593;48.398;10.698;2022-09-01T02:15:38;6.60;;;6.10;;
20865;SDS011;10593;48.398;10.698;2022-09-01T02:18:16;7.20;;;6.60;;
20865;SDS011;10593;48.398;10.698;2022-09-01T02:21:02;7.43;;;6.83;;
20865;SDS011;10593;48.398;10.698;2022-09-01T02:23:34;7.10;;;6.53;;
20865;SDS011;10593;48.398;10.698;2022-09-01T02:26:00;6.43;;;5.93;;
20865;SDS011;10593;48.398;10.698;2022-09-01T02:28:27;6.70;;;6.10;;
20865;SDS011;10593;48.398;10.698;2022-09-01T02:30:56;7.10;;;6.60;;
20865;SDS011;10593;48.398;10.698;2022-09-01T02:33:24;6.73;;;6.13;;
20865;SDS011;10593;48.398;10.698;2022-09-01T02:36:03;7.50;;;6.37;;
20865;SDS011;10593;48.398;10.698;2022-09-01T02:38:33;7.20;;;6.60;;
20865;SDS011;10593;48.398;10.698;2022-09-01T02:41:02;6.90;;;6.30;;
20865;SDS011;10593;48.398;10.698;2022-09-01T02:43:28;7.83;;;7.13;;
20865;SDS011;10593;48.398;10.698;2022-09-01T02:45:56;7.03;;;6.53;;
20865;SDS011;10593;48.398;10.698;2022-09-01T02:48:25;7.10;;;6.50;;
20865;SDS011;10593;48.398;10.698;2022-09-01T02:51:04;7.03;;;6.40;;
20865;SDS011;10593;48.398;10.698;2022-09-01T02:53:42;6.97;;;6.37;;
20865;SDS011;10593;48.398;10.698;2022-09-01T02:56:14;6.63;;;6.03;;
20865;SDS011;10593;48.398;10.698;2022-09-01T02:58:41;6.77;;;6.27;;
20865;SDS011;10593;48.398;10.698;2022-09-01T03:01:24;8.43;;;7.73;;
20865;SDS011;10593;48.398;10.698;2022-09-01T03:03:55;6.43;;;5.93;;
20865;SDS011;10593;48.398;10.698;2022-09-01T03:06:24;7.07;;;6.53;;
20865;SDS011;10593;48.398;10.698;2022-09-01T03:08:53;6.93;;;6.33;;
20865;SDS011;10593;48.398;10.698;2022-09-01T03:11:23;7.50;;;6.90;;
20865;SDS011;10593;48.398;10.698;2022-09-01T03:13:50;8.03;;;7.00;;
20865;SDS011;10593;48.398;10.698;2022-09-01T03:16:17;7.93;;;7.13;;
20865;SDS011;10593;48.398;10.698;2022-09-01T03:18:43;7.00;;;6.40;;
20865;SDS011;10593;48.398;10.698;2022-09-01T03:21:09;7.60;;;7.00;;
20865;SDS011;10593;48.398;10.698;2022-09-01T03:23:40;7.40;;;6.80;;
20865;SDS011;10593;48.398;10.698;2022-09-01T03:26:07;7.03;;;6.40;;
20865;SDS011;10593;48.398;10.698;2022-09-01T03:28:33;7.87;;;7.17;;
20865;SDS011;10593;48.398;10.698;2022-09-01T03:30:58;7.73;;;7.03;;
20865;SDS011;10593;48.398;10.698;2022-09-01T03:33:25;7.47;;;6.87;;
20865;SDS011;10593;48.398;10.698;2022-09-01T03:35:54;7.33;;;6.73;;
20865;SDS011;10593;48.398;10.698;2022-09-01T03:38:21;7.43;;;6.73;;
20865;SDS011;10593;48.398;10.698;2022-09-01T03:40:49;7.20;;;6.60;;
20865;SDS011;10593;48.398;10.698;2022-09-01T03:43:19;7.67;;;7.00;;
20865;SDS011;10593;48.398;10.698;2022-09-01T03:45:48;7.47;;;6.87;;
20865;SDS011;10593;48.398;10.698;2022-09-01T03:48:14;7.53;;;6.93;;
20865;SDS011;10593;48.398;10.698;2022-09-01T03:50:41;7.03;;;6.53;;
20865;SDS011;10593;48.398;10.698;2022-09-01T03:53:14;7.77;;;7.00;;
20865;SDS011;10593;48.398;10.698;2022-09-01T03:55:47;7.80;;;7.20;;
20865;SDS011;10593;48.398;10.698;2022-09-01T03:58:14;7.23;;;6.63;;
20865;SDS011;10593;48.398;10.698;2022-09-01T04:00:44;7.83;;;7.13;;
20865;SDS011;10593;48.398;10.698;2022-09-01T04:03:19;7.97;;;7.37;;
20865;SDS011;10593;48.398;10.698;2022-09-01T04:05:49;7.70;;;7.03;;
20865;SDS011;10593;48.398;10.698;2022-09-01T04:08:17;7.77;;;7.17;;
20865;SDS011;10593;48.398;10.698;2022-09-01T04:10:49;7.87;;;7.27;;
20865;SDS011;10593;48.398;10.698;2022-09-01T04:13:22;7.40;;;6.80;;
20865;SDS011;10593;48.398;10.698;2022-09-01T04:15:55;7.77;;;7.17;;
20865;SDS011;10593;48.398;10.698;2022-09-01T04:18:22;8.00;;;7.30;;
20865;SDS011;10593;48.398;10.698;2022-09-01T04:20:50;7.60;;;7.00;;
20865;SDS011;10593;48.398;10.698;2022-09-01T04:23:22;7.00;;;6.50;;
20865;SDS011;10593;48.398;10.698;2022-09-01T04:25:59;7.67;;;7.07;;
20865;SDS011;10593;48.398;10.698;2022-09-01T04:28:48;7.83;;;7.13;;
20865;SDS011;10593;48.398;10.698;2022-09-01T04:31:16;7.47;;;6.87;;
20865;SDS011;10593;48.398;10.698;2022-09-01T04:33:46;7.60;;;7.00;;
20865;SDS011;10593;48.398;10.698;2022-09-01T04:36:21;7.63;;;7.00;;
20865;SDS011;10593;48.398;10.698;2022-09-01T04:38:53;7.20;;;6.60;;
20865;SDS011;10593;48.398;10.698;2022-09-01T04:41:25;7.03;;;6.50;;
20865;SDS011;10593;48.398;10.698;2022-09-01T04:43:57;7.03;;;6.43;;
20865;SDS011;10593;48.398;10.698;2022-09-01T04:46:28;6.93;;;6.33;;
20865;SDS011;10593;48.398;10.698;2022-09-01T04:49:03;7.57;;;6.97;;
20865;SDS011;10593;48.398;10.698;2022-09-01T04:51:33;7.33;;;6.73;;
20865;SDS011;10593;48.398;10.698;2022-09-01T04:54:06;7.57;;;7.03;;
20865;SDS011;10593;48.398;10.698;2022-09-01T04:56:39;7.33;;;6.73;;
20865;SDS011;10593;48.398;10.698;2022-09-01T04:59:13;7.33;;;6.63;;
20865;SDS011;10593;48.398;10.698;2022-09-01T05:01:40;7.93;;;7.23;;
20865;SDS011;10593;48.398;10.698;2022-09-01T05:04:13;7.53;;;6.87;;
20865;SDS011;10593;48.398;10.698;2022-09-01T05:06:47;7.47;;;6.87;;
20865;SDS011;10593;48.398;10.698;2022-09-01T05:09:23;7.23;;;6.63;;
20865;SDS011;10593;48.398;10.698;2022-09-01T05:11:51;7.70;;;7.10;;
20865;SDS011;10593;48.398;10.698;2022-09-01T05:14:17;7.70;;;6.90;;
20865;SDS011;10593;48.398;10.698;2022-09-01T05:16:46;7.37;;;6.77;;
20865;SDS011;10593;48.398;10.698;2022-09-01T05:19:13;8.17;;;7.53;;
20865;SDS011;10593;48.398;10.698;2022-09-01T05:21:41;8.90;;;8.10;;
20865;SDS011;10593;48.398;10.698;2022-09-01T05:24:18;8.17;;;7.47;;
20865;SDS011;10593;48.398;10.698;2022-09-01T05:26:46;7.73;;;7.13;;
20865;SDS011;10593;48.398;10.698;2022-09-01T05:29:14;7.93;;;7.27;;
20865;SDS011;10593;48.398;10.698;2022-09-01T05:31:42;8.23;;;7.53;;
20865;SDS011;10593;48.398;10.698;2022-09-01T05:34:11;8.03;;;7.33;;
20865;SDS011;10593;48.398;10.698;2022-09-01T05:36:40;7.13;;;6.53;;
20865;SDS011;10593;48.398;10.698;2022-09-01T05:39:10;7.60;;;7.00;;
20865;SDS011;10593;48.398;10.698;2022-09-01T05:41:36;6.97;;;6.43;;
20865;SDS011;10593;48.398;10.698;2022-09-01T05:44:05;7.80;;;7.10;;
20865;SDS011;10593;48.398;10.698;2022-09-01T05:46:33;7.93;;;7.03;;
20865;SDS011;10593;48.398;10.698;2022-09-01T05:49:01;8.43;;;7.67;;
20865;SDS011;10593;48.398;10.698;2022-09-01T05:51:28;7.63;;;6.90;;
20865;SDS011;10593;48.398;10.698;2022-09-01T05:54:00;7.60;;;6.97;;
20865;SDS011;10593;48.398;10.698;2022-09-01T05:56:27;6.53;;;6.03;;
20865;SDS011;10593;48.398;10.698;2022-09-01T05:58:55;7.67;;;7.07;;
20865;SDS011;10593;48.398;10.698;2022-09-01T06:01:26;8.40;;;7.50;;
20865;SDS011;10593;48.398;10.698;2022-09-01T06:03:55;7.07;;;6.47;;
20865;SDS011;10593;48.398;10.698;2022-09-01T06:06:26;7.60;;;6.90;;
20865;SDS011;10593;48.398;10.698;2022-09-01T06:09:11;6.87;;;6.27;;
20865;SDS011;10593;48.398;10.698;2022-09-01T06:11:41;8.00;;;7.30;;
20865;SDS011;10593;48.398;10.698;2022-09-01T06:14:10;7.57;;;6.97;;
20865;SDS011;10593;48.398;10.698;2022-09-01T06:16:41;7.43;;;6.73;;
20865;SDS011;10593;48.398;10.698;2022-09-01T06:19:07;7.50;;;6.90;;
20865;SDS011;10593;48.398;10.698;2022-09-01T06:21:34;7.57;;;6.97;;
20865;SDS011;10593;48.398;10.698;2022-09-01T06:24:03;8.23;;;7.53;;
20865;SDS011;10593;48.398;10.698;2022-09-01T06:26:32;10.30;;;7.83;;
20865;SDS011;10593;48.398;10.698;2022-09-01T06:29:02;7.77;;;7.07;;
20865;SDS011;10593;48.398;10.698;2022-09-01T06:31:34;7.87;;;7.27;;
20865;SDS011;10593;48.398;10.698;2022-09-01T06:34:03;8.33;;;7.67;;
20865;SDS011;10593;48.398;10.698;2022-09-01T06:36:34;7.90;;;7.30;;
20865;SDS011;10593;48.398;10.698;2022-09-01T06:39:04;7.80;;;7.10;;
20865;SDS011;10593;48.398;10.698;2022-09-01T06:41:32;6.77;;;6.27;;
20865;SDS011;10593;48.398;10.698;2022-09-01T06:43:58;7.53;;;6.83;;
20865;SDS011;10593;48.398;10.698;2022-09-01T06:46:25;7.13;;;6.53;;
20865;SDS011;10593;48.398;10.698;2022-09-01T06:48:52;6.87;;;6.27;;
20865;SDS011;10593;48.398;10.698;2022-09-01T06:51:22;7.80;;;7.07;;
20865;SDS011;10593;48.398;10.698;2022-09-01T06:53:51;5.80;;;5.40;;
20865;SDS011;10593;48.398;10.698;2022-09-01T06:56:20;6.73;;;6.23;;
20865;SDS011;10593;48.398;10.698;2022-09-01T06:58:50;7.37;;;6.70;;
20865;SDS011;10593;48.398;10.698;2022-09-01T07:01:17;6.70;;;6.10;;
20865;SDS011;10593;48.398;10.698;2022-09-01T07:03:46;6.40;;;5.80;;
20865;SDS011;10593;48.398;10.698;2022-09-01T07:06:16;5.77;;;5.27;;
20865;SDS011;10593;48.398;10.698;2022-09-01T07:08:47;6.07;;;5.37;;
20865;SDS011;10593;48.398;10.698;2022-09-01T07:11:20;5.50;;;5.07;;
20865;SDS011;10593;48.398;10.698;2022-09-01T07:13:51;5.57;;;5.17;;
20865;SDS011;10593;48.398;10.698;2022-09-01T07:16:20;5.83;;;5.33;;
20865;SDS011;10593;48.398;10.698;2022-09-01T07:18:49;5.13;;;4.73;;
20865;SDS011;10593;48.398;10.698;2022-09-01T07:21:20;5.53;;;5.13;;
20865;SDS011;10593;48.398;10.698;2022-09-01T07:23:46;5.00;;;4.70;;
20865;SDS011;10593;48.398;10.698;2022-09-01T07:26:12;5.73;;;5.23;;
20865;SDS011;10593;48.398;10.698;2022-09-01T07:28:45;4.77;;;4.37;;
20865;SDS011;10593;48.398;10.698;2022-09-01T07:31:18;6.07;;;4.67;;
20865;SDS011;10593;48.398;10.698;2022-09-01T07:33:48;5.73;;;5.23;;
20865;SDS011;10593;48.398;10.698;2022-09-01T07:36:15;5.30;;;4.90;;
20865;SDS011;10593;48.398;10.698;2022-09-01T07:38:42;5.63;;;5.13;;
20865;SDS011;10593;48.398;10.698;2022-09-01T07:41:09;5.43;;;4.93;;
20865;SDS011;10593;48.398;10.698;2022-09-01T07:43:39;5.57;;;5.13;;
20865;SDS011;10593;48.398;10.698;2022-09-01T07:46:09;6.17;;;5.67;;
20865;SDS011;10593;48.398;10.698;2022-09-01T07:48:37;5.07;;;4.67;;
20865;SDS011;10593;48.398;10.698;2022-09-01T07:51:03;5.50;;;5.00;;
20865;SDS011;10593;48.398;10.698;2022-09-01T07:53:30;4.93;;;4.60;;
20865;SDS011;10593;48.398;10.698;2022-09-01T07:56:03;5.47;;;5.07;;
20865;SDS011;10593;48.398;10.698;2022-09-01T07:58:34;4.97;;;4.47;;
20865;SDS011;10593;48.398;10.698;2022-09-01T08:01:08;4.57;;;4.17;;
20865;SDS011;10593;48.398;10.698;2022-09-01T08:03:38;4.70;;;4.40;;
20865;SDS011;10593;48.398;10.698;2022-09-01T08:06:06;4.97;;;4.57;;
20865;SDS011;10593;48.398;10.698;2022-09-01T08:08:35;5.03;;;4.73;;
20865;SDS011;10593;48.398;10.698;2022-09-01T08:11:04;5.23;;;4.83;;
20865;SDS011;10593;48.398;10.698;2022-09-01T08:13:32;5.07;;;4.53;;
20865;SDS011;10593;48.398;10.698;2022-09-01T08:16:02;5.17;;;4.77;;
20865;SDS011;10593;48.398;10.698;2022-09-01T08:18:30;5.33;;;4.87;;
20865;SDS011;10593;48.398;10.698;2022-09-01T08:20:55;5.13;;;4.63;;
20865;SDS011;10593;48.398;10.698;2022-09-01T08:23:21;5.43;;;5.03;;
20865;SDS011;10593;48.398;10.698;2022-09-01T08:25:50;4.87;;;4.57;;
20865;SDS011;10593;48.398;10.698;2022-09-01T08:28:17;4.23;;;3.83;;
20865;SDS011;10593;48.398;10.698;2022-09-01T08:30:43;4.20;;;3.90;;
20865;SDS011;10593;48.398;10.698;2022-09-01T08:33:12;4.67;;;4.27;;
20865;SDS011;10593;48.398;10.698;2022-09-01T08:35:39;4.50;;;4.20;;
20865;SDS011;10593;48.398;10.698;2022-09-01T08:38:07;6.67;;;3.60;;
20865;SDS011;10593;48.398;10.698;2022-09-01T08:40:33;3.97;;;3.73;;
20865;SDS011;10593;48.398;10.698;2022-09-01T08:45:54;5.07;;;4.57;;
20865;SDS011;10593;48.398;10.698;2022-09-01T08:48:29;4.50;;;4.10;;
20865;SDS011;10593;48.398;10.698;2022-09-01T08:53:45;3.83;;;3.63;;
20865;SDS011;10593;48.398;10.698;2022-09-01T08:56:22;4.20;;;3.90;;
20865;SDS011;10593;48.398;10.698;2022-09-01T08:58:49;4.90;;;4.50;;
20865;SDS011;10593;48.398;10.698;2022-09-01T09:01:19;4.60;;;4.30;;
20865;SDS011;10593;48.398;10.698;2022-09-01T09:04:12;5.37;;;4.13;;
20865;SDS011;10593;48.398;10.698;2022-09-01T09:07:12;4.30;;;4.00;;
20865;SDS011;10593;48.398;10.698;2022-09-01T09:10:13;4.30;;;4.00;;
20865;SDS011;10593;48.398;10.698;2022-09-01T09:15:58;4.33;;;4.03;;
20865;SDS011;10593;48.398;10.698;2022-09-01T09:18:48;4.80;;;4.50;;
20865;SDS011;10593;48.398;10.698;2022-09-01T09:23:55;5.27;;;4.87;;
20865;SDS011;10593;48.398;10.698;2022-09-01T09:26:33;4.40;;;4.10;;
20865;SDS011;10593;48.398;10.698;2022-09-01T09:28:58;4.53;;;4.23;;
20865;SDS011;10593;48.398;10.698;2022-09-01T09:31:27;4.37;;;4.07;;
20865;SDS011;10593;48.398;10.698;2022-09-01T09:34:18;4.30;;;4.00;;
20865;SDS011;10593;48.398;10.698;2022-09-01T09:40:26;4.80;;;4.40;;
20865;SDS011;10593;48.398;10.698;2022-09-01T09:48:00;4.57;;;4.27;;
20865;SDS011;10593;48.398;10.698;2022-09-01T09:50:49;4.57;;;4.27;;
20865;SDS011;10593;48.398;10.698;2022-09-01T09:53:17;4.33;;;4.03;;
20865;SDS011;10593;48.398;10.698;2022-09-01T09:58:48;4.33;;;4.03;;
20865;SDS011;10593;48.398;10.698;2022-09-01T10:09:06;4.50;;;4.20;;
20865;SDS011;10593;48.398;10.698;2022-09-01T10:11:44;4.40;;;4.10;;
20865;SDS011;10593;48.398;10.698;2022-09-01T10:14:18;4.53;;;4.23;;
20865;SDS011;10593;48.398;10.698;2022-09-01T10:16:49;4.17;;;3.80;;
20865;SDS011;10593;48.398;10.698;2022-09-01T10:19:23;4.40;;;4.00;;
20865;SDS011;10593;48.398;10.698;2022-09-01T10:21:51;3.97;;;3.77;;
20865;SDS011;10593;48.398;10.698;2022-09-01T10:24:24;4.37;;;4.07;;
20865;SDS011;10593;48.398;10.698;2022-09-01T10:27:01;4.60;;;4.20;;
20865;SDS011;10593;48.398;10.698;2022-09-01T10:30:22;5.10;;;4.70;;
20865;SDS011;10593;48.398;10.698;2022-09-01T10:32:45;4.30;;;3.97;;
20865;SDS011;10593;48.398;10.698;2022-09-01T10:35:18;4.13;;;3.83;;
20865;SDS011;10593;48.398;10.698;2022-09-01T10:37:51;4.27;;;3.87;;
20865;SDS011;10593;48.398;10.698;2022-09-01T10:42:48;3.67;;;3.37;;
20865;SDS011;10593;48.398;10.698;2022-09-01T10:45:28;3.80;;;3.50;;
20865;SDS011;10593;48.398;10.698;2022-09-01T10:50:51;4.17;;;3.87;;
20865;SDS011;10593;48.398;10.698;2022-09-01T10:53:41;4.37;;;3.97;;
20865;SDS011;10593;48.398;10.698;2022-09-01T10:56:12;4.43;;;4.03;;
20865;SDS011;10593;48.398;10.698;2022-09-01T11:04:13;4.17;;;3.83;;
20865;SDS011;10593;48.398;10.698;2022-09-01T11:06:58;3.97;;;3.67;;
20865;SDS011;10593;48.398;10.698;2022-09-01T11:15:32;3.43;;;3.23;;
20865;SDS011;10593;48.398;10.698;2022-09-01T11:18:00;3.30;;;3.00;;
20865;SDS011;10593;48.398;10.698;2022-09-01T11:20:32;3.73;;;3.43;;
20865;SDS011;10593;48.398;10.698;2022-09-01T11:23:04;3.37;;;3.17;;
20865;SDS011;10593;48.398;10.698;2022-09-01T11:25:55;3.70;;;3.00;;
20865;SDS011;10593;48.398;10.698;2022-09-01T11:33:41;3.53;;;3.33;;
20865;SDS011;10593;48.398;10.698;2022-09-01T11:36:32;3.03;;;2.83;;
20865;SDS011;10593;48.398;10.698;2022-09-01T11:41:45;3.40;;;3.20;;
20865;SDS011;10593;48.398;10.698;2022-09-01T11:47:10;3.10;;;2.80;;
20865;SDS011;10593;48.398;10.698;2022-09-01T11:52:28;3.30;;;3.10;;
20865;SDS011;10593;48.398;10.698;2022-09-01T11:55:03;3.77;;;3.50;;
20865;SDS011;10593;48.398;10.698;2022-09-01T11:57:33;3.40;;;3.20;;
20865;SDS011;10593;48.398;10.698;2022-09-01T12:00:05;3.37;;;3.17;;
20865;SDS011;10593;48.398;10.698;2022-09-01T12:02:40;3.83;;;3.53;;
20865;SDS011;10593;48.398;10.698;2022-09-01T12:05:28;3.67;;;3.47;;
20865;SDS011;10593;48.398;10.698;2022-09-01T12:08:04;3.87;;;3.60;;
20865;SDS011;10593;48.398;10.698;2022-09-01T12:10:38;4.47;;;4.17;;
20865;SDS011;10593;48.398;10.698;2022-09-01T12:13:08;3.43;;;3.23;;
20865;SDS011;10593;48.398;10.698;2022-09-01T12:15:57;4.40;;;3.70;;
20865;SDS011;10593;48.398;10.698;2022-09-01T12:18:32;3.13;;;2.93;;
20865;SDS011;10593;48.398;10.698;2022-09-01T12:21:05;3.50;;;3.27;;
20865;SDS011;10593;48.398;10.698;2022-09-01T12:23:34;2.87;;;2.70;;
20865;SDS011;10593;48.398;10.698;2022-09-01T12:26:05;3.37;;;2.80;;
20865;SDS011;10593;48.398;10.698;2022-09-01T12:28:36;2.67;;;2.57;;
20865;SDS011;10593;48.398;10.698;2022-09-01T12:31:07;2.87;;;2.67;;
20865;SDS011;10593;48.398;10.698;2022-09-01T12:33:43;2.40;;;2.30;;
20865;SDS011;10593;48.398;10.698;2022-09-01T12:38:53;2.10;;;2.00;;
20865;SDS011;10593;48.398;10.698;2022-09-01T12:41:42;2.90;;;2.70;;
20865;SDS011;10593;48.398;10.698;2022-09-01T12:44:27;2.23;;;2.13;;
20865;SDS011;10593;48.398;10.698;2022-09-01T12:52:46;2.27;;;2.17;;
20865;SDS011;10593;48.398;10.698;2022-09-01T12:55:26;2.73;;;2.10;;
20865;SDS011;10593;48.398;10.698;2022-09-01T12:57:59;2.00;;;1.90;;
20865;SDS011;10593;48.398;10.698;2022-09-01T13:00:32;2.10;;;2.00;;
20865;SDS011;10593;48.398;10.698;2022-09-01T13:03:19;1.87;;;1.77;;
20865;SDS011;10593;48.398;10.698;2022-09-01T13:05:52;3.10;;;2.70;;
20865;SDS011;10593;48.398;10.698;2022-09-01T13:08:21;4.60;;;2.20;;
20865;SDS011;10593;48.398;10.698;2022-09-01T13:11:09;2.17;;;2.07;;
20865;SDS011;10593;48.398;10.698;2022-09-01T13:13:42;2.40;;;2.20;;
20865;SDS011;10593;48.398;10.698;2022-09-01T13:16:07;3.77;;;2.20;;
20865;SDS011;10593;48.398;10.698;2022-09-01T13:18:38;2.50;;;2.30;;
20865;SDS011;10593;48.398;10.698;2022-09-01T13:21:06;2.50;;;2.30;;
20865;SDS011;10593;48.398;10.698;2022-09-01T13:23:32;2.17;;;2.07;;
20865;SDS011;10593;48.398;10.698;2022-09-01T13:25:58;2.20;;;2.10;;
20865;SDS011;10593;48.398;10.698;2022-09-01T13:28:24;2.23;;;2.13;;
20865;SDS011;10593;48.398;10.698;2022-09-01T13:30:57;3.10;;;1.90;;
20865;SDS011;10593;48.398;10.698;2022-09-01T13:33:29;2.50;;;2.30;;
20865;SDS011;10593;48.398;10.698;2022-09-01T13:35:57;2.30;;;2.20;;
20865;SDS011;10593;48.398;10.698;2022-09-01T13:38:23;2.10;;;2.00;;
20865;SDS011;10593;48.398;10.698;2022-09-01T13:40:49;2.63;;;2.43;;
20865;SDS011;10593;48.398;10.698;2022-09-01T13:43:16;2.30;;;2.10;;
20865;SDS011;10593;48.398;10.698;2022-09-01T13:45:46;2.00;;;1.90;;
20865;SDS011;10593;48.398;10.698;2022-09-01T13:48:13;2.23;;;2.10;;
20865;SDS011;10593;48.398;10.698;2022-09-01T13:50:39;2.20;;;2.00;;
20865;SDS011;10593;48.398;10.698;2022-09-01T13:53:06;2.20;;;2.10;;
20865;SDS011;10593;48.398;10.698;2022-09-01T13:55:33;2.30;;;2.07;;
20865;SDS011;10593;48.398;10.698;2022-09-01T13:58:03;4.43;;;2.00;;
20865;SDS011;10593;48.398;10.698;2022-09-01T14:00:31;2.17;;;2.07;;
20865;SDS011;10593;48.398;10.698;2022-09-01T14:03:06;2.20;;;2.10;;
20865;SDS011;10593;48.398;10.698;2022-09-01T14:05:42;1.90;;;1.80;;
20865;SDS011;10593;48.398;10.698;2022-09-01T14:08:11;1.80;;;1.70;;
20865;SDS011;10593;48.398;10.698;2022-09-01T14:10:41;1.90;;;1.80;;
20865;SDS011;10593;48.398;10.698;2022-09-01T14:13:10;5.93;;;2.20;;
20865;SDS011;10593;48.398;10.698;2022-09-01T14:15:37;1.70;;;1.60;;
20865;SDS011;10593;48.398;10.698;2022-09-01T14:18:04;1.90;;;1.80;;
20865;SDS011;10593;48.398;10.698;2022-09-01T14:20:32;2.47;;;1.60;;
20865;SDS011;10593;48.398;10.698;2022-09-01T14:23:03;1.70;;;1.60;;
20865;SDS011;10593;48.398;10.698;2022-09-01T14:25:32;1.70;;;1.60;;
20865;SDS011;10593;48.398;10.698;2022-09-01T14:27:59;3.33;;;1.60;;
20865;SDS011;10593;48.398;10.698;2022-09-01T14:30:27;1.70;;;1.60;;
20865;SDS011;10593;48.398;10.698;2022-09-01T14:32:55;1.83;;;1.67;;
20865;SDS011;10593;48.398;10.698;2022-09-01T14:35:22;1.67;;;1.57;;
20865;SDS011;10593;48.398;10.698;2022-09-01T14:37:48;2.43;;;1.93;;
20865;SDS011;10593;48.398;10.698;2022-09-01T14:40:17;1.90;;;1.80;;
20865;SDS011;10593;48.398;10.698;2022-09-01T14:42:45;1.90;;;1.80;;
20865;SDS011;10593;48.398;10.698;2022-09-01T14:45:14;1.80;;;1.70;;
20865;SDS011;10593;48.398;10.698;2022-09-01T14:47:42;1.83;;;1.70;;
20865;SDS011;10593;48.398;10.698;2022-09-01T14:50:12;1.47;;;1.47;;
20865;SDS011;10593;48.398;10.698;2022-09-01T14:52:38;2.13;;;1.60;;
20865;SDS011;10593;48.398;10.698;2022-09-01T14:55:04;2.20;;;1.80;;
20865;SDS011;10593;48.398;10.698;2022-09-01T14:57:30;1.97;;;1.40;;
20865;SDS011;10593;48.398;10.698;2022-09-01T14:59:56;1.53;;;1.50;;
20865;SDS011;10593;48.398;10.698;2022-09-01T15:02:23;1.67;;;1.50;;
20865;SDS011;10593;48.398;10.698;2022-09-01T15:04:50;2.00;;;1.67;;
20865;SDS011;10593;48.398;10.698;2022-09-01T15:07:17;1.60;;;1.50;;
20865;SDS011;10593;48.398;10.698;2022-09-01T15:09:43;1.50;;;1.40;;
20865;SDS011;10593;48.398;10.698;2022-09-01T15:12:08;1.40;;;1.40;;
20865;SDS011;10593;48.398;10.698;2022-09-01T15:14:35;1.90;;;1.50;;
20865;SDS011;10593;48.398;10.698;2022-09-01T15:17:01;1.70;;;1.60;;
20865;SDS011;10593;48.398;10.698;2022-09-01T15:19:28;2.40;;;1.60;;
20865;SDS011;10593;48.398;10.698;2022-09-01T15:21:53;1.60;;;1.50;;
20865;SDS011;10593;48.398;10.698;2022-09-01T15:24:20;1.30;;;1.20;;
20865;SDS011;10593;48.398;10.698;2022-09-01T15:26:47;1.43;;;1.23;;
20865;SDS011;10593;48.398;10.698;2022-09-01T15:29:13;1.17;;;1.17;;
20865;SDS011;10593;48.398;10.698;2022-09-01T15:31:40;1.70;;;1.40;;
20865;SDS011;10593;48.398;10.698;2022-09-01T15:34:08;1.50;;;1.40;;
20865;SDS011;10593;48.398;10.698;2022-09-01T15:36:35;1.60;;;1.50;;
20865;SDS011;10593;48.398;10.698;2022-09-01T15:39:04;1.50;;;1.40;;
20865;SDS011;10593;48.398;10.698;2022-09-01T15:41:32;1.60;;;1.50;;
20865;SDS011;10593;48.398;10.698;2022-09-01T15:44:00;1.67;;;1.57;;
20865;SDS011;10593;48.398;10.698;2022-09-01T15:46:31;1.30;;;1.30;;
20865;SDS011;10593;48.398;10.698;2022-09-01T15:49:04;1.40;;;1.30;;
20865;SDS011;10593;48.398;10.698;2022-09-01T15:51:34;1.57;;;1.20;;
20865;SDS011;10593;48.398;10.698;2022-09-01T15:54:08;1.47;;;1.40;;
20865;SDS011;10593;48.398;10.698;2022-09-01T15:56:37;1.23;;;1.20;;
20865;SDS011;10593;48.398;10.698;2022-09-01T15:59:04;1.50;;;1.40;;
20865;SDS011;10593;48.398;10.698;2022-09-01T16:01:33;1.10;;;1.10;;
20865;SDS011;10593;48.398;10.698;2022-09-01T16:04:06;1.07;;;1.07;;
20865;SDS011;10593;48.398;10.698;2022-09-01T16:06:35;1.30;;;1.20;;